Date,TemperatureHighF,TemperatureAvgF,TemperatureLowF,DewpointHighF,DewpointAvgF,DewpointLowF,HumidityHigh,HumidityAvg,HumidityLow,PressureMaxIn,PressureMinIn,WindSpeedMaxMPH,WindSpeedAvgMPH,GustSpeedMaxMPH,PrecipitationSumIn
2013-8-1,87.0,81.9,79.0,75.0,73.2,72.0,82,75,65,30.03,29.94,9,4,17,0.05
2013-8-2,88.0,79.7,76.0,75.0,72.2,70.0,84,78,61,30.03,29.90,8,3,14,0.09
2013-8-3,85.0,77.6,71.0,77.0,72.2,67.0,88,83,71,30.11,30.01,13,1,23,0.79
2013-8-4,91.0,79.7,73.0,78.0,73.3,68.0,88,81,63,30.10,29.96,15,1,26,0.70
2013-8-5,91.0,80.1,76.0,78.0,73.9,70.0,88,82,62,30.02,29.93,8,2,22,0.06
2013-8-6,90.0,80.8,76.0,78.0,73.7,70.0,88,80,67,29.97,29.88,7,2,13,0.01
2013-8-7,87.0,82.3,78.0,77.0,74.6,72.0,86,78,70,29.97,29.88,13,4,24,0.01
2013-8-8,88.0,84.1,81.0,77.0,75.0,73.0,79,75,67,29.99,29.91,11,7,19,0.01
2013-8-9,87.0,82.5,81.0,76.0,73.7,72.0,80,75,69,30.05,29.94,12,6,21,0.01
2013-8-10,88.0,84.6,81.0,77.0,75.4,73.0,80,74,68,30.10,30.02,12,7,17,0.00
2013-8-11,88.0,84.1,81.0,78.0,75.5,73.0,79,76,70,30.12,30.05,10,6,17,0.00
2013-8-21,86.0,82.6,78.0,78.0,75.6,72.0,85,80,75,30.06,29.98,13,6,19,0.18
2013-8-22,88.0,84.4,79.0,79.0,76.1,72.0,81,76,71,30.04,29.95,10,6,18,0.02
2013-8-23,88.0,83.3,79.0,78.0,75.2,73.0,83,77,69,30.00,29.92,11,4,16,0.00
2013-8-24,89.0,83.8,80.0,77.0,75.0,72.0,84,75,67,30.09,29.96,10,4,17,0.00
2013-8-25,85.0,79.5,77.0,76.0,69.9,-99.9,83,76,70,30.13,30.01,9,4,14,0.00
2013-8-26,87.0,80.9,74.0,76.0,73.2,68.0,85,78,67,30.10,30.00,10,3,17,0.37
2013-8-27,85.0,77.5,75.0,74.0,71.6,70.0,86,82,68,30.03,29.97,7,2,10,0.38
2013-8-28,87.0,82.9,78.0,75.0,73.5,71.0,81,74,67,30.01,29.94,8,5,19,0.02
2013-8-29,87.0,81.5,75.0,77.0,73.4,69.0,84,77,67,30.01,29.91,10,3,15,0.02
2013-8-30,82.0,78.9,77.0,75.0,73.1,72.0,85,83,79,29.96,29.91,1,0,5,0.00